createdAt,value
2022-09-30T00:01:39.781Z,3.88
2022-09-30T00:04:14.541Z,3.73
2022-09-30T00:06:42.471Z,3.89
2022-09-30T00:09:11.529Z,3.88
2022-09-30T00:11:40.135Z,3.81
2022-09-30T00:14:09.607Z,3.87
2022-09-30T00:16:38.445Z,3.84
2022-09-30T00:19:06.485Z,3.64
2022-09-30T00:21:35.671Z,3.79
2022-09-30T00:24:04.631Z,3.75
2022-09-30T00:26:33.151Z,3.77
2022-09-30T00:29:02.339Z,3.71
2022-09-30T00:31:33.073Z,3.70
2022-09-30T00:34:11.657Z,3.71
2022-09-30T00:36:44.615Z,3.84
2022-09-30T00:39:14.829Z,3.82
2022-09-30T00:41:43.359Z,3.87
2022-09-30T00:44:59.889Z,3.90
2022-09-30T00:47:51.912Z,3.77
2022-09-30T00:50:38.265Z,3.79
2022-09-30T00:53:15.295Z,3.70
2022-09-30T00:55:51.535Z,3.57
2022-09-30T00:58:26.240Z,3.48
2022-09-30T01:00:54.207Z,3.46
2022-09-30T01:03:23.213Z,3.62
2022-09-30T01:05:52.543Z,3.67
2022-09-30T01:08:22.285Z,3.66
2022-09-30T01:10:50.108Z,3.42
2022-09-30T01:13:20.190Z,3.45
2022-09-30T01:16:19.741Z,3.64
2022-09-30T01:18:59.622Z,3.54
2022-09-30T01:21:49.217Z,3.46
2022-09-30T01:24:49.035Z,3.48
2022-09-30T01:27:45.059Z,3.56
2022-09-30T01:30:17.698Z,3.55
2022-09-30T01:33:06.085Z,3.48
2022-09-30T01:35:51.203Z,3.53
2022-09-30T01:38:29.580Z,3.16
2022-09-30T01:41:06.130Z,3.30
2022-09-30T01:43:45.513Z,3.14
2022-09-30T01:46:22.103Z,3.34
2022-09-30T01:48:59.043Z,3.22
2022-09-30T01:51:33.826Z,3.21
2022-09-30T01:54:06.625Z,3.24
2022-09-30T01:56:40.350Z,3.24
2022-09-30T01:59:12.212Z,3.20
2022-09-30T02:01:46.834Z,3.04
2022-09-30T02:04:20.862Z,3.16
2022-09-30T02:06:57.478Z,2.99
2022-09-30T02:09:30.442Z,2.94
2022-09-30T02:12:04.803Z,3.20
2022-09-30T02:14:38.662Z,3.11
2022-09-30T02:17:13.612Z,3.12
2022-09-30T02:19:47.043Z,3.10
2022-09-30T02:22:18.665Z,3.10
2022-09-30T02:24:48.901Z,3.20
2022-09-30T02:27:20.978Z,3.07
2022-09-30T02:29:54.655Z,3.22
2022-09-30T02:32:26.510Z,2.97
2022-09-30T02:34:59.396Z,3.15
2022-09-30T02:37:33.155Z,3.08
2022-09-30T02:40:07.789Z,2.94
2022-09-30T02:42:38.839Z,3.02
2022-09-30T02:45:11.196Z,2.89
2022-09-30T02:47:51.514Z,2.84
2022-09-30T02:50:31.402Z,2.91
2022-09-30T02:53:14.811Z,3.09
2022-09-30T02:55:52.631Z,3.10
2022-09-30T02:58:22.556Z,3.14
2022-09-30T03:00:51.853Z,3.04
2022-09-30T03:03:23.186Z,2.92
2022-09-30T03:05:53.139Z,2.77
2022-09-30T03:08:21.393Z,2.77
2022-09-30T03:10:52.464Z,2.96
2022-09-30T03:13:36.003Z,3.09
2022-09-30T03:16:17.708Z,2.83
2022-09-30T03:19:00.934Z,3.14
2022-09-30T03:21:44.563Z,3.14
2022-09-30T03:24:38.128Z,2.88
2022-09-30T03:27:18.414Z,2.84
2022-09-30T03:29:57.580Z,2.87
2022-09-30T03:32:39.610Z,2.87
2022-09-30T03:35:19.708Z,3.07
2022-09-30T03:37:57.536Z,3.15
2022-09-30T03:40:33.207Z,2.83
2022-09-30T03:43:09.100Z,3.10
2022-09-30T03:45:40.694Z,2.94
2022-09-30T03:48:12.443Z,2.97
2022-09-30T03:50:42.568Z,3.13
2022-09-30T03:53:13.875Z,3.11
2022-09-30T03:55:49.570Z,3.25
2022-09-30T03:58:19.019Z,3.24
2022-09-30T04:00:50.722Z,2.85
2022-09-30T04:03:19.748Z,3.05
2022-09-30T04:05:48.049Z,2.99
2022-09-30T04:08:17.887Z,3.00
2022-09-30T04:10:45.700Z,2.84
2022-09-30T04:13:13.977Z,2.83
2022-09-30T04:15:42.299Z,2.58
2022-09-30T04:18:10.201Z,2.78
2022-09-30T04:20:39.705Z,2.74
2022-09-30T04:23:07.455Z,2.90
2022-09-30T04:25:36.700Z,3.02
2022-09-30T04:28:04.501Z,3.01
2022-09-30T04:30:33.732Z,3.01
2022-09-30T04:33:01.766Z,2.83
2022-09-30T04:35:30.113Z,2.87
2022-09-30T04:37:57.962Z,2.92
2022-09-30T04:40:26.255Z,2.82
2022-09-30T04:42:58.287Z,2.78
2022-09-30T04:45:26.533Z,2.76
2022-09-30T04:47:54.498Z,2.70
2022-09-30T04:50:22.738Z,2.66
2022-09-30T04:52:50.472Z,2.70
2022-09-30T04:55:18.380Z,2.71
2022-09-30T04:57:46.462Z,2.54
2022-09-30T05:00:15.873Z,2.79
2022-09-30T05:02:45.006Z,2.91
2022-09-30T05:05:12.933Z,2.77
2022-09-30T05:07:40.996Z,2.92
2022-09-30T05:10:11.149Z,2.80
2022-09-30T05:12:39.235Z,2.79
2022-09-30T05:15:07.746Z,2.93
2022-09-30T05:17:37.538Z,3.05
2022-09-30T05:20:10.751Z,2.87
2022-09-30T05:22:39.446Z,2.99
2022-09-30T05:25:08.191Z,3.00
2022-09-30T05:27:35.937Z,2.94
2022-09-30T05:30:04.136Z,2.96
2022-09-30T05:32:32.244Z,3.00
2022-09-30T05:35:03.565Z,2.88
2022-09-30T05:37:31.425Z,3.05
2022-09-30T05:39:59.243Z,2.95
2022-09-30T05:42:27.347Z,3.08
2022-09-30T05:44:55.119Z,3.05
2022-09-30T05:47:24.101Z,3.14
2022-09-30T05:49:55.416Z,3.14
2022-09-30T05:52:25.584Z,3.18
2022-09-30T05:54:53.836Z,3.15
2022-09-30T05:57:22.407Z,3.05
2022-09-30T05:59:50.945Z,3.06
2022-09-30T06:02:19.005Z,3.08
2022-09-30T06:04:46.839Z,3.19
2022-09-30T06:07:14.915Z,3.08
2022-09-30T06:09:44.339Z,3.21
2022-09-30T06:12:12.249Z,3.19
2022-09-30T06:14:39.997Z,3.13
2022-09-30T06:17:07.839Z,3.15
2022-09-30T06:19:35.667Z,3.23
2022-09-30T06:22:03.582Z,3.42
2022-09-30T06:24:31.321Z,3.39
2022-09-30T06:27:00.824Z,3.55
2022-09-30T06:29:28.594Z,3.64
2022-09-30T06:31:56.462Z,3.80
2022-09-30T06:34:24.575Z,3.88
2022-09-30T06:36:54.132Z,4.07
2022-09-30T06:39:22.075Z,4.14
2022-09-30T06:41:49.818Z,4.24
2022-09-30T06:44:18.962Z,4.49
2022-09-30T06:46:53.517Z,4.71
2022-09-30T06:49:22.364Z,4.87
2022-09-30T06:51:51.489Z,4.97
2022-09-30T06:54:20.739Z,5.23
2022-09-30T06:56:48.571Z,5.49
2022-09-30T06:59:17.992Z,5.68
2022-09-30T07:01:46.373Z,5.83
2022-09-30T07:04:14.434Z,6.10
2022-09-30T07:06:42.199Z,6.38
2022-09-30T07:09:11.884Z,6.39
2022-09-30T07:11:40.000Z,6.62
2022-09-30T07:14:08.293Z,6.82
2022-09-30T07:16:38.623Z,6.97
2022-09-30T07:19:09.048Z,7.13
2022-09-30T07:21:36.893Z,7.39
2022-09-30T07:24:05.750Z,7.58
2022-09-30T07:26:33.523Z,7.71
2022-09-30T07:29:01.435Z,7.93
2022-09-30T07:31:36.601Z,8.18
2022-09-30T07:34:08.134Z,8.35
2022-09-30T07:36:37.863Z,8.23
2022-09-30T07:39:08.460Z,8.47
2022-09-30T07:41:38.969Z,8.55
2022-09-30T07:44:09.891Z,8.79
2022-09-30T07:46:39.246Z,8.91
2022-09-30T07:49:13.566Z,9.24
2022-09-30T07:51:45.258Z,9.26
2022-09-30T07:54:17.940Z,9.50
2022-09-30T07:59:36.904Z,9.33
2022-09-30T08:02:05.155Z,9.49
2022-09-30T08:04:35.998Z,9.84
2022-09-30T08:07:05.707Z,9.45
2022-09-30T08:09:33.535Z,9.94
2022-09-30T08:12:03.499Z,10.11
2022-09-30T08:14:31.432Z,10.14
2022-09-30T08:17:00.585Z,9.94
2022-09-30T08:19:30.902Z,10.13
2022-09-30T08:22:00.610Z,10.63
2022-09-30T08:24:28.620Z,10.80
2022-09-30T08:26:57.151Z,10.84
2022-09-30T08:32:13.252Z,10.62
2022-09-30T08:34:41.652Z,10.81
2022-09-30T08:37:11.122Z,10.75
2022-09-30T08:39:39.995Z,11.28
2022-09-30T08:42:49.626Z,11.30
2022-09-30T08:45:28.237Z,11.15
2022-09-30T08:50:52.692Z,11.65
2022-09-30T08:53:30.763Z,11.69
2022-09-30T08:56:02.948Z,11.98
2022-09-30T08:58:34.082Z,12.03
2022-09-30T09:01:08.102Z,12.44
2022-09-30T09:03:36.317Z,12.60
2022-09-30T09:06:21.290Z,12.71
2022-09-30T09:09:02.564Z,12.42
2022-09-30T09:11:49.137Z,12.80
2022-09-30T09:14:30.029Z,12.97
2022-09-30T09:17:16.000Z,13.01
2022-09-30T09:19:54.819Z,12.86
2022-09-30T09:22:24.896Z,13.24
2022-09-30T09:24:55.329Z,13.25
2022-09-30T09:30:06.495Z,13.67
2022-09-30T09:32:38.974Z,13.49
2022-09-30T09:35:16.633Z,12.92
2022-09-30T09:38:14.662Z,13.37
2022-09-30T09:40:58.282Z,13.56
2022-09-30T09:43:36.981Z,13.63
2022-09-30T09:46:16.254Z,13.59
2022-09-30T09:48:44.873Z,13.49
2022-09-30T09:51:23.308Z,13.66
2022-09-30T09:53:53.541Z,13.85
2022-09-30T09:56:28.377Z,13.80
2022-09-30T09:59:10.859Z,13.71
2022-09-30T10:01:41.403Z,14.29
2022-09-30T10:04:30.635Z,14.31
2022-09-30T10:07:01.139Z,14.43
2022-09-30T10:09:32.466Z,14.20
2022-09-30T10:12:31.503Z,14.31
2022-09-30T10:15:03.198Z,14.59
2022-09-30T10:17:33.210Z,14.67
2022-09-30T10:20:06.481Z,14.63
2022-09-30T10:22:37.132Z,14.46
2022-09-30T10:25:23.446Z,14.64
2022-09-30T10:28:01.687Z,14.52
2022-09-30T10:30:44.757Z,14.88
2022-09-30T10:33:22.116Z,14.71
2022-09-30T10:36:12.876Z,14.88
2022-09-30T10:38:50.514Z,14.58
2022-09-30T10:41:24.707Z,15.15
2022-09-30T10:43:57.052Z,14.94
2022-09-30T10:46:28.183Z,15.09
2022-09-30T10:48:59.075Z,14.79
2022-09-30T10:51:36.024Z,14.54
2022-09-30T10:54:04.913Z,14.11
2022-09-30T10:56:35.099Z,14.04
2022-09-30T10:59:05.943Z,14.55
2022-09-30T11:01:39.903Z,14.34
2022-09-30T11:04:17.873Z,14.01
2022-09-30T11:06:48.591Z,14.41
2022-09-30T11:09:25.417Z,14.87
2022-09-30T11:11:58.506Z,15.11
2022-09-30T11:14:36.595Z,14.93
2022-09-30T11:17:21.783Z,14.99
2022-09-30T11:19:58.360Z,14.87
2022-09-30T11:22:37.123Z,14.82
2022-09-30T11:25:10.995Z,14.14
2022-09-30T11:27:55.870Z,14.73
2022-09-30T11:30:34.356Z,14.65
2022-09-30T11:33:26.081Z,14.87
2022-09-30T11:36:01.410Z,14.54
2022-09-30T11:38:59.808Z,15.33
2022-09-30T11:41:33.137Z,15.66
2022-09-30T11:44:15.843Z,14.92
2022-09-30T11:47:05.057Z,15.19
2022-09-30T11:49:56.460Z,14.96
2022-09-30T11:52:33.514Z,15.42
2022-09-30T11:55:22.093Z,15.69
2022-09-30T11:57:56.881Z,16.09
2022-09-30T12:00:24.969Z,15.88
2022-09-30T12:02:59.355Z,15.80
2022-09-30T12:05:33.145Z,14.93
2022-09-30T12:08:06.695Z,15.53
2022-09-30T12:10:38.719Z,15.68
2022-09-30T12:13:13.164Z,15.75
2022-09-30T12:15:44.622Z,16.34
2022-09-30T12:18:21.476Z,15.84
2022-09-30T12:20:54.075Z,15.53
2022-09-30T12:23:29.349Z,15.56
2022-09-30T12:25:59.158Z,16.08
2022-09-30T12:28:52.575Z,15.96
2022-09-30T12:31:41.521Z,16.42
2022-09-30T12:34:27.163Z,16.64
2022-09-30T12:37:12.670Z,16.99
2022-09-30T12:39:56.803Z,16.50
2022-09-30T12:42:49.302Z,16.85
2022-09-30T12:45:50.619Z,16.83
2022-09-30T12:48:21.099Z,17.23
2022-09-30T12:50:53.169Z,17.34
2022-09-30T12:53:28.695Z,16.59
2022-09-30T12:56:05.521Z,17.25
2022-09-30T12:58:40.022Z,17.56
2022-09-30T13:01:14.267Z,17.25
2022-09-30T13:03:50.403Z,16.85
2022-09-30T13:06:21.936Z,17.84
2022-09-30T13:09:18.924Z,16.93
2022-09-30T13:11:48.268Z,16.92
2022-09-30T13:14:26.597Z,16.67
2022-09-30T13:17:20.336Z,17.17
2022-09-30T13:19:52.017Z,17.71
2022-09-30T13:22:58.925Z,18.04
2022-09-30T13:25:27.019Z,17.29
2022-09-30T13:28:28.075Z,16.99
2022-09-30T13:31:15.986Z,17.73
2022-09-30T13:33:46.573Z,17.72
2022-09-30T13:36:28.791Z,17.42
2022-09-30T13:39:22.273Z,16.73
2022-09-30T13:42:10.588Z,16.36
2022-09-30T13:44:58.001Z,16.27
2022-09-30T13:47:31.914Z,15.93
2022-09-30T13:50:05.556Z,16.56
2022-09-30T13:52:38.250Z,16.80
2022-09-30T13:55:16.223Z,17.00
2022-09-30T13:57:53.404Z,16.69
2022-09-30T14:00:24.189Z,16.51
2022-09-30T14:03:15.052Z,16.39
2022-09-30T14:06:03.079Z,16.74
2022-09-30T14:09:09.241Z,16.66
2022-09-30T14:12:16.764Z,16.96
2022-09-30T14:15:42.566Z,17.03
2022-09-30T14:18:53.960Z,16.85
2022-09-30T14:21:35.171Z,16.95
2022-09-30T14:24:10.403Z,17.16
2022-09-30T14:26:58.948Z,17.17
2022-09-30T14:29:39.262Z,17.12
2022-09-30T14:32:13.320Z,16.60
2022-09-30T14:34:42.313Z,16.64
2022-09-30T14:37:19.990Z,16.37
2022-09-30T14:39:49.570Z,16.41
2022-09-30T14:42:26.154Z,16.33
2022-09-30T14:44:56.852Z,16.61
2022-09-30T14:47:26.783Z,16.23
2022-09-30T14:49:54.824Z,16.28
2022-09-30T14:52:42.811Z,16.38
2022-09-30T14:55:27.776Z,16.35
2022-09-30T14:57:58.884Z,16.40
2022-09-30T15:00:31.646Z,16.42
2022-09-30T15:03:01.030Z,16.46
2022-09-30T15:05:29.604Z,16.01
2022-09-30T15:07:57.426Z,15.98
2022-09-30T15:10:26.854Z,15.94
2022-09-30T15:12:56.250Z,15.88
2022-09-30T15:15:36.284Z,15.81
2022-09-30T15:18:32.433Z,16.00
2022-09-30T15:21:05.583Z,16.07
2022-09-30T15:23:36.703Z,16.15
2022-09-30T15:26:06.085Z,16.10
2022-09-30T15:28:35.131Z,15.99
2022-09-30T15:31:05.630Z,15.99
2022-09-30T15:33:34.299Z,15.63
2022-09-30T15:36:04.373Z,15.85
2022-09-30T15:38:34.064Z,15.72
2022-09-30T15:41:04.897Z,15.56
2022-09-30T15:43:36.826Z,15.37
2022-09-30T15:46:21.516Z,15.39
2022-09-30T15:48:49.961Z,15.51
2022-09-30T15:51:26.604Z,15.55
2022-09-30T15:54:00.505Z,15.51
2022-09-30T15:56:35.753Z,15.62
2022-09-30T15:59:06.580Z,15.28
2022-09-30T16:01:38.083Z,15.36
2022-09-30T16:04:11.048Z,15.31
2022-09-30T16:06:46.411Z,15.28
2022-09-30T16:09:24.743Z,15.07
2022-09-30T16:12:02.848Z,15.10
2022-09-30T16:14:34.335Z,14.86
2022-09-30T16:17:06.433Z,14.87
2022-09-30T16:19:35.408Z,14.87
2022-09-30T16:22:03.256Z,14.77
2022-09-30T16:24:48.331Z,14.82
2022-09-30T16:27:32.835Z,14.88
2022-09-30T16:30:01.833Z,14.94
2022-09-30T16:32:33.659Z,14.86
2022-09-30T16:35:01.542Z,14.82
2022-09-30T16:37:29.423Z,14.90
2022-09-30T16:40:00.480Z,14.71
2022-09-30T16:42:28.313Z,14.38
2022-09-30T16:44:56.028Z,14.35
2022-09-30T16:47:23.788Z,14.34
2022-09-30T16:49:53.068Z,14.36
2022-09-30T16:52:20.824Z,14.38
2022-09-30T16:54:48.467Z,14.32
2022-09-30T16:57:17.014Z,14.11
2022-09-30T16:59:44.761Z,14.00
2022-09-30T17:02:15.547Z,13.98
2022-09-30T17:04:45.594Z,13.85
2022-09-30T17:07:15.720Z,13.58
2022-09-30T17:09:44.593Z,13.44
2022-09-30T17:12:13.431Z,13.33
2022-09-30T17:14:43.410Z,13.06
2022-09-30T17:17:13.772Z,12.77
2022-09-30T17:19:42.001Z,12.58
2022-09-30T17:22:09.777Z,12.26
2022-09-30T17:24:38.918Z,12.08
2022-09-30T17:27:07.471Z,11.91
2022-09-30T17:29:38.856Z,11.76
2022-09-30T17:32:09.431Z,11.51
2022-09-30T17:34:37.281Z,11.40
2022-09-30T17:37:05.144Z,11.32
2022-09-30T17:39:32.938Z,11.22
2022-09-30T17:42:25.148Z,11.02
2022-09-30T17:44:52.900Z,10.98
2022-09-30T17:47:21.354Z,10.87
2022-09-30T17:49:49.094Z,10.79
2022-09-30T17:52:18.105Z,10.54
2022-09-30T17:54:51.136Z,10.55
2022-09-30T17:57:22.033Z,10.60
2022-09-30T17:59:49.795Z,10.53
2022-09-30T18:02:18.192Z,10.37
2022-09-30T18:04:47.176Z,10.41
2022-09-30T18:07:14.881Z,10.36
2022-09-30T18:09:42.651Z,10.38
2022-09-30T18:12:10.387Z,10.36
2022-09-30T18:14:39.478Z,10.55
2022-09-30T18:17:07.641Z,10.52
2022-09-30T18:19:36.204Z,10.39
2022-09-30T18:22:04.395Z,10.43
2022-09-30T18:24:49.610Z,10.51
2022-09-30T18:27:17.505Z,10.43
2022-09-30T18:29:46.671Z,10.29
2022-09-30T18:32:15.027Z,10.43
2022-09-30T18:34:42.834Z,10.27
2022-09-30T18:37:10.635Z,10.48
2022-09-30T18:39:38.738Z,10.44
2022-09-30T18:42:06.550Z,10.46
2022-09-30T18:44:37.636Z,10.44
2022-09-30T18:47:07.202Z,10.47
2022-09-30T18:49:34.978Z,10.40
2022-09-30T18:52:03.226Z,10.52
2022-09-30T18:54:31.063Z,10.44
2022-09-30T18:56:59.675Z,10.41
2022-09-30T18:59:27.720Z,10.54
2022-09-30T19:01:55.762Z,10.58
2022-09-30T19:04:25.021Z,10.58
2022-09-30T19:06:52.785Z,10.52
2022-09-30T19:09:20.732Z,10.37
2022-09-30T19:11:49.226Z,10.55
2022-09-30T19:14:17.010Z,10.56
2022-09-30T19:16:45.955Z,10.51
2022-09-30T19:19:13.761Z,10.52
2022-09-30T19:21:45.223Z,10.51
2022-09-30T19:24:12.925Z,10.70
2022-09-30T19:26:40.754Z,10.66
2022-09-30T19:29:09.691Z,10.57
2022-09-30T19:31:38.850Z,10.63
2022-09-30T19:34:07.185Z,10.69
2022-09-30T19:36:44.918Z,10.75
2022-09-30T19:39:18.482Z,10.69
2022-09-30T19:41:47.278Z,10.82
2022-09-30T19:44:18.614Z,10.82
2022-09-30T19:46:47.109Z,10.79
2022-09-30T19:49:15.547Z,10.73
2022-09-30T19:51:43.299Z,10.79
2022-09-30T19:54:11.233Z,10.83
2022-09-30T19:56:40.535Z,10.85
2022-09-30T19:59:08.349Z,11.09
2022-09-30T20:01:36.640Z,11.11
2022-09-30T20:04:05.851Z,10.95
2022-09-30T20:06:34.922Z,11.02
2022-09-30T20:09:05.952Z,11.01
2022-09-30T20:11:36.075Z,10.91
2022-09-30T20:14:24.859Z,10.98
2022-09-30T20:16:53.422Z,11.07
2022-09-30T20:19:22.370Z,11.05
2022-09-30T20:21:51.135Z,11.05
2022-09-30T20:24:19.897Z,11.11
2022-09-30T20:26:50.308Z,11.05
2022-09-30T20:29:20.680Z,11.05
2022-09-30T20:31:49.367Z,10.98
2022-09-30T20:34:19.526Z,11.04
2022-09-30T20:36:47.681Z,11.00
2022-09-30T20:39:16.166Z,11.01
2022-09-30T20:41:45.179Z,11.11
2022-09-30T20:44:13.804Z,11.11
2022-09-30T20:46:43.880Z,11.18
2022-09-30T20:49:11.703Z,11.22
2022-09-30T20:51:39.537Z,11.24
2022-09-30T20:54:07.331Z,11.23
2022-09-30T20:56:49.996Z,11.13
2022-09-30T20:59:23.242Z,11.22
2022-09-30T21:01:52.504Z,11.23
2022-09-30T21:04:21.319Z,11.26
2022-09-30T21:06:49.111Z,11.26
2022-09-30T21:09:17.097Z,11.37
2022-09-30T21:11:44.899Z,11.30
2022-09-30T21:14:12.639Z,11.26
2022-09-30T21:16:40.503Z,11.28
2022-09-30T21:19:10.353Z,11.18
2022-09-30T21:21:38.095Z,11.38
2022-09-30T21:24:05.965Z,11.29
2022-09-30T21:26:33.703Z,11.31
2022-09-30T21:29:02.196Z,11.46
2022-09-30T21:31:30.393Z,11.32
2022-09-30T21:34:00.037Z,11.49
2022-09-30T21:36:29.893Z,11.42
2022-09-30T21:39:02.245Z,11.49
2022-09-30T21:41:31.240Z,11.44
2022-09-30T21:43:59.279Z,11.52
2022-09-30T21:46:29.609Z,11.53
2022-09-30T21:49:05.821Z,11.53
2022-09-30T21:51:35.998Z,11.43
2022-09-30T21:54:03.971Z,11.49
2022-09-30T21:56:31.958Z,11.45
2022-09-30T21:58:59.860Z,11.50
2022-09-30T22:01:27.806Z,11.61
2022-09-30T22:03:55.579Z,11.58
2022-09-30T22:06:24.135Z,11.62
2022-09-30T22:08:53.295Z,11.47
2022-09-30T22:11:25.041Z,11.63
2022-09-30T22:13:55.160Z,11.72
2022-09-30T22:16:26.106Z,11.67
2022-09-30T22:18:55.380Z,11.65
2022-09-30T22:21:23.616Z,11.68
2022-09-30T22:23:51.352Z,11.76
2022-09-30T22:26:23.604Z,11.71
2022-09-30T22:28:56.331Z,11.81
2022-09-30T22:31:26.034Z,11.78
2022-09-30T22:34:13.035Z,11.80
2022-09-30T22:36:58.203Z,11.81
2022-09-30T22:39:26.100Z,11.76
2022-09-30T22:41:56.502Z,11.81
2022-09-30T22:44:26.534Z,11.83
2022-09-30T22:46:55.020Z,11.66
2022-09-30T22:49:24.403Z,11.75
2022-09-30T22:51:52.404Z,11.65
2022-09-30T22:54:20.560Z,11.73
2022-09-30T22:56:50.457Z,11.88
2022-09-30T22:59:20.692Z,11.92
2022-09-30T23:01:49.191Z,11.92
2022-09-30T23:04:17.794Z,11.92
2022-09-30T23:06:45.833Z,11.86
2022-09-30T23:09:13.615Z,11.89
2022-09-30T23:11:42.303Z,12.02
2022-09-30T23:14:10.534Z,11.87
2022-09-30T23:16:40.194Z,11.85
2022-09-30T23:19:08.008Z,11.93
2022-09-30T23:21:36.305Z,11.88
2022-09-30T23:24:05.084Z,11.82
2022-09-30T23:26:32.991Z,11.91
2022-09-30T23:29:02.079Z,11.93
2022-09-30T23:31:30.975Z,11.93
2022-09-30T23:34:02.127Z,11.88
2022-09-30T23:36:31.310Z,11.88
2022-09-30T23:39:02.547Z,11.95
2022-09-30T23:41:30.676Z,11.93
2022-09-30T23:43:59.139Z,11.88
2022-09-30T23:46:26.934Z,11.93
2022-09-30T23:48:54.838Z,11.91
2022-09-30T23:51:24.287Z,11.97
2022-09-30T23:53:52.155Z,11.91
2022-09-30T23:56:20.748Z,11.95
2022-09-30T23:58:50.572Z,11.91
